Time;durP1;ratioP1;P1;durP2;ratioP2;P2;SDS_P1;SDS_P2;PMS_P1;PMS_P2;Temp;Humidity;BMP_temperature;BMP_pressure;BME280_temperature;BME280_humidity;BME280_pressure;Samples;Min_cycle;Max_cycle;Signal;HPM_P1;HPM_P2
2023/03/20 00:01:48;;;;;;;33.90;16.02;;;11.20;75.60;;;;;;9177775;19;20010;-63
2023/03/20 00:04:52;;;;;;;38.17;16.77;;;11.10;75.50;;;;;;9178771;19;20099;-63
2023/03/20 00:07:59;;;;;;;32.03;14.75;;;11.20;75.60;;;;;;9178138;19;20467;-64
2023/03/20 00:11:03;;;;;;;33.88;14.68;;;11.20;75.60;;;;;;9182089;19;20014;-64
2023/03/20 00:14:14;;;;;;;31.95;15.35;;;11.20;75.70;;;;;;9180999;19;20019;-64
2023/03/20 00:17:21;;;;;;;30.20;14.80;;;11.20;75.80;;;;;;9180497;19;20018;-63
2023/03/20 00:20:27;;;;;;;29.92;14.40;;;11.20;75.70;;;;;;9181204;19;20019;-64
2023/03/20 00:23:32;;;;;;;30.33;14.18;;;11.10;75.70;;;;;;9178800;19;20019;-64
2023/03/20 00:26:39;;;;;;;32.67;14.52;;;11.10;75.70;;;;;;9180860;19;20025;-64
2023/03/20 00:29:46;;;;;;;30.33;13.98;;;11.10;75.70;;;;;;9180548;19;20018;-64
2023/03/20 00:32:53;;;;;;;27.08;13.38;;;11.10;75.80;;;;;;9180314;19;20415;-63
2023/03/20 00:35:57;;;;;;;27.65;13.73;;;11.10;75.80;;;;;;9178412;19;20029;-63
2023/03/20 00:39:04;;;;;;;34.08;14.55;;;11.10;75.80;;;;;;9180128;19;20022;-63
2023/03/20 00:42:09;;;;;;;27.67;13.43;;;11.10;75.80;;;;;;9180280;19;20019;-63
2023/03/20 00:45:20;;;;;;;29.65;13.80;;;11.10;75.90;;;;;;9180370;19;20032;-63
2023/03/20 00:48:24;;;;;;;30.75;14.52;;;11.10;75.90;;;;;;9180128;19;20037;-63
2023/03/20 00:51:30;;;;;;;29.88;14.15;;;11.10;75.90;;;;;;9177913;19;20011;-63
2023/03/20 00:54:35;;;;;;;28.75;14.13;;;11.00;75.80;;;;;;9178347;19;20731;-63
2023/03/20 00:57:46;;;;;;;29.95;15.00;;;11.00;75.90;;;;;;9174015;19;20006;-63
2023/03/20 01:00:53;;;;;;;31.15;13.80;;;11.00;75.90;;;;;;9172928;19;20534;-62
2023/03/20 01:03:59;;;;;;;31.20;14.25;;;11.00;75.90;;;;;;9166953;19;20010;-63
2023/03/20 01:07:06;;;;;;;29.70;14.18;;;11.00;75.90;;;;;;9178270;19;20010;-63
2023/03/20 01:10:12;;;;;;;28.17;14.15;;;11.00;76.00;;;;;;9175249;19;20523;-63
2023/03/20 01:13:22;;;;;;;29.85;14.52;;;11.00;76.10;;;;;;9177468;19;20015;-63
2023/03/20 01:16:30;;;;;;;30.50;15.00;;;10.90;76.10;;;;;;9178078;19;20029;-63
2023/03/20 01:19:35;;;;;;;36.80;15.40;;;10.90;76.00;;;;;;9178354;19;20478;-63
2023/03/20 01:22:41;;;;;;;27.63;12.85;;;10.90;76.10;;;;;;9175773;19;20014;-63
2023/03/20 01:25:45;;;;;;;;;;;10.90;76.10;;;;;;9178836;19;20011;-63
2023/03/20 01:28:51;;;;;;;23.58;10.80;;;10.90;76.00;;;;;;9176732;19;19926;-63
2023/03/20 01:31:58;;;;;;;26.83;12.02;;;10.90;75.90;;;;;;9175626;19;20018;-63
2023/03/20 01:35:06;;;;;;;26.25;11.80;;;10.80;75.90;;;;;;9176162;19;20021;-63
2023/03/20 01:38:16;;;;;;;30.15;13.13;;;10.80;75.90;;;;;;9175672;19;20019;-63
2023/03/20 01:41:25;;;;;;;32.80;12.38;;;10.80;76.00;;;;;;9176059;19;20360;-63
2023/03/20 01:44:32;;;;;;;27.58;12.80;;;10.80;76.00;;;;;;9172072;19;20113;-63
2023/03/20 01:47:41;;;;;;;31.80;12.93;;;10.70;75.90;;;;;;9173098;19;20025;-63
2023/03/20 01:50:47;;;;;;;30.75;13.82;;;10.70;76.00;;;;;;9174150;19;20032;-63
2023/03/20 01:53:58;;;;;;;30.73;13.20;;;10.70;76.00;;;;;;9175317;19;20488;-63
2023/03/20 01:57:08;;;;;;;32.72;14.18;;;10.70;76.10;;;;;;9175890;19;20019;-64
2023/03/20 02:00:17;;;;;;;28.98;13.48;;;10.70;76.10;;;;;;9174403;19;20064;-63
2023/03/20 02:03:26;;;;;;;30.52;12.45;;;10.70;76.10;;;;;;9173819;19;20610;-63
2023/03/20 02:06:52;;;;;;;32.00;13.50;;;10.60;76.00;;;;;;9174267;19;20011;-63
2023/03/20 02:10:19;;;;;;;29.27;13.38;;;10.60;76.00;;;;;;9175214;19;20082;-63
2023/03/20 02:13:36;;;;;;;33.95;14.52;;;10.60;76.00;;;;;;9175127;19;20015;-63
2023/03/20 02:16:40;;;;;;;29.92;13.57;;;10.60;76.00;;;;;;9174122;19;20023;-63
2023/03/20 02:20:22;;;;;;;28.92;12.48;;;10.60;76.00;;;;;;9174881;19;20431;-63
2023/03/20 02:23:58;;;;;;;24.42;11.15;;;10.60;76.10;;;;;;9180179;19;20041;-63
2023/03/20 02:27:19;;;;;;;25.25;11.75;;;10.60;76.20;;;;;;9181818;19;20018;-63
2023/03/20 02:30:49;;;;;;;31.67;12.48;;;10.50;76.00;;;;;;9180377;19;20018;-63
2023/03/20 02:34:16;;;;;;;22.30;9.52;;;10.50;76.10;;;;;;9181516;19;20720;-63
2023/03/20 02:37:54;;;;;;;24.85;10.70;;;10.50;76.10;;;;;;9182171;19;20018;-63
2023/03/20 02:41:08;;;;;;;26.00;11.90;;;10.50;76.20;;;;;;9183007;19;20011;-63
2023/03/20 02:44:19;;;;;;;25.58;9.90;;;10.50;76.10;;;;;;9172119;19;20022;-63
2023/03/20 02:47:32;;;;;;;24.73;10.27;;;10.40;76.10;;;;;;9178920;19;20015;-63
2023/03/20 02:50:51;;;;;;;23.90;9.98;;;10.40;76.10;;;;;;9175183;19;20026;-63
2023/03/20 02:54:07;;;;;;;27.00;9.50;;;10.40;76.10;;;;;;9181039;19;20010;-63
2023/03/20 02:57:20;;;;;;;20.52;9.70;;;10.40;76.10;;;;;;9176338;19;20014;-63
2023/03/20 03:00:32;;;;;;;19.45;8.73;;;10.40;76.10;;;;;;9182190;19;20017;-64
2023/03/20 03:03:40;;;;;;;19.33;8.15;;;10.40;76.10;;;;;;9181632;19;20022;-63
2023/03/20 03:06:51;;;;;;;19.42;8.55;;;10.30;76.10;;;;;;9181077;19;20022;-63
2023/03/20 03:10:01;;;;;;;19.73;8.93;;;10.30;76.20;;;;;;9178738;19;20029;-63
2023/03/20 03:13:12;;;;;;;15.65;7.32;;;10.30;76.20;;;;;;9181272;19;20018;-63
2023/03/20 03:16:21;;;;;;;22.27;8.57;;;10.30;76.20;;;;;;9182787;19;20011;-63
2023/03/20 03:19:30;;;;;;;15.88;8.07;;;10.30;76.20;;;;;;9180765;19;20034;-61
2023/03/20 03:22:35;;;;;;;19.50;8.48;;;10.30;76.20;;;;;;9181504;19;20036;-62
2023/03/20 03:25:44;;;;;;;18.15;8.23;;;10.30;76.20;;;;;;9179964;19;20022;-63
2023/03/20 03:28:52;;;;;;;18.05;8.88;;;10.30;76.30;;;;;;9178786;19;20035;-62
2023/03/20 03:31:59;;;;;;;18.58;8.25;;;10.30;76.20;;;;;;9177938;19;20365;-62
2023/03/20 03:35:06;;;;;;;21.77;9.25;;;10.30;76.20;;;;;;9181836;19;20035;-62
2023/03/20 03:38:29;;;;;;;17.60;8.25;;;10.20;76.20;;;;;;9181294;19;20018;-62
2023/03/20 03:41:44;;;;;;;17.20;8.40;;;10.20;76.20;;;;;;9176136;19;20539;-63
2023/03/20 03:44:59;;;;;;;19.13;9.33;;;10.20;76.20;;;;;;9179574;19;20356;-63
2023/03/20 03:48:08;;;;;;;21.25;9.77;;;10.20;76.20;;;;;;9180064;19;20512;-62
2023/03/20 03:51:18;;;;;;;20.92;9.90;;;10.20;76.20;;;;;;9181287;19;20014;-62
2023/03/20 03:54:41;;;;;;;22.40;10.25;;;10.20;76.20;;;;;;9179720;19;20471;-62
2023/03/20 03:58:12;;;;;;;33.85;11.93;;;10.20;76.30;;;;;;9175729;19;20014;-62
2023/03/20 04:01:18;;;;;;;19.73;10.95;;;10.20;76.30;;;;;;9180952;19;20014;-62
2023/03/20 04:04:26;;;;;;;27.65;12.18;;;10.10;76.30;;;;;;9177449;19;20033;-62
2023/03/20 04:07:30;;;;;;;23.27;12.32;;;10.20;76.40;;;;;;9180660;19;20027;-62
2023/03/20 04:10:36;;;;;;;31.75;12.15;;;10.10;76.30;;;;;;9178584;19;20360;-62
2023/03/20 04:13:42;;;;;;;;;;;10.10;76.40;;;;;;9180527;19;20022;-62
2023/03/20 04:16:49;;;;;;;25.02;12.52;;;10.10;76.30;;;;;;9179676;19;20252;-62
2023/03/20 04:19:53;;;;;;;21.88;11.25;;;10.10;76.20;;;;;;9180531;19;20082;-63
2023/03/20 04:23:00;;;;;;;23.48;11.18;;;10.10;76.30;;;;;;9177236;19;20018;-62
2023/03/20 04:26:04;;;;;;;19.90;10.38;;;10.00;76.90;;;;;;9178834;19;20010;-62
2023/03/20 04:29:15;;;;;;;19.98;11.73;;;10.00;76.30;;;;;;9178592;19;20022;-62
2023/03/20 04:32:45;;;;;;;20.60;11.48;;;10.00;76.30;;;;;;9179324;19;20030;-63
2023/03/20 04:36:05;;;;;;;21.25;11.05;;;10.00;76.30;;;;;;9176110;19;20022;-62
2023/03/20 04:39:10;;;;;;;22.33;10.40;;;10.00;76.30;;;;;;9178309;19;20007;-62
2023/03/20 04:42:16;;;;;;;23.15;10.07;;;10.00;76.30;;;;;;9177928;19;20010;-62
2023/03/20 04:45:22;;;;;;;16.73;10.30;;;10.00;76.30;;;;;;9174361;19;20018;-62
2023/03/20 04:48:29;;;;;;;25.77;10.23;;;9.90;76.20;;;;;;9178240;19;20018;-62
2023/03/20 04:51:33;;;;;;;24.00;10.98;;;9.90;76.20;;;;;;9177159;19;20018;-62
2023/03/20 04:54:39;;;;;;;21.60;10.25;;;9.90;76.20;;;;;;9178520;19;20010;-62
2023/03/20 04:57:43;;;;;;;20.52;10.77;;;9.90;76.20;;;;;;9174188;19;20014;-62
2023/03/20 05:00:52;;;;;;;20.25;10.35;;;9.90;76.20;;;;;;9177514;19;20025;-62
2023/03/20 05:03:59;;;;;;;18.25;9.85;;;9.90;76.30;;;;;;9176314;19;20480;-64
2023/03/20 05:07:09;;;;;;;20.05;10.52;;;9.80;76.10;;;;;;9177009;19;20021;-63
2023/03/20 05:10:26;;;;;;;20.33;9.25;;;9.80;76.20;;;;;;9177292;19;20010;-62
2023/03/20 05:13:38;;;;;;;17.40;9.02;;;9.80;76.10;;;;;;9177646;19;20021;-62
2023/03/20 05:17:02;;;;;;;19.10;9.23;;;9.80;76.20;;;;;;9178961;19;20033;-62
2023/03/20 05:20:20;;;;;;;23.42;9.35;;;9.80;76.30;;;;;;9177446;19;20018;-62
2023/03/20 05:23:33;;;;;;;14.40;8.43;;;9.80;76.20;;;;;;9177841;19;20082;-63
2023/03/20 05:27:03;;;;;;;21.02;8.30;;;9.70;76.10;;;;;;9176859;19;20030;-62
2023/03/20 05:30:40;;;;;;;15.82;7.88;;;9.70;76.10;;;;;;9177102;19;20025;-63
2023/03/20 05:34:06;;;;;;;19.10;8.13;;;9.70;76.10;;;;;;9174790;19;20015;-62
2023/03/20 05:37:19;;;;;;;16.27;7.38;;;9.70;76.10;;;;;;9178010;19;20015;-63
2023/03/20 05:40:45;;;;;;;14.57;7.05;;;9.70;76.10;;;;;;9175211;19;20010;-62
2023/03/20 05:44:11;;;;;;;16.90;6.20;;;9.60;76.00;;;;;;9174740;19;21029;-63
2023/03/20 05:47:28;;;;;;;11.40;5.00;;;9.60;76.00;;;;;;9175732;19;20014;-62
2023/03/20 05:50:52;;;;;;;12.55;5.20;;;9.60;76.00;;;;;;9176484;19;20073;-63
2023/03/20 05:54:15;;;;;;;11.48;5.07;;;9.60;76.00;;;;;;9176746;19;20038;-63
2023/03/20 05:57:34;;;;;;;13.88;5.07;;;9.50;75.90;;;;;;9169333;19;20014;-63
2023/03/20 06:01:20;;;;;;;12.77;4.90;;;9.50;75.90;;;;;;9171599;19;20057;-62
2023/03/20 06:04:45;;;;;;;8.18;4.45;;;9.50;75.90;;;;;;9170777;19;20081;-63
2023/03/20 06:08:08;;;;;;;15.98;5.15;;;9.40;75.80;;;;;;9174362;19;20018;-62
2023/03/20 06:11:12;;;;;;;10.30;4.53;;;9.40;75.90;;;;;;9177144;19;20349;-62
2023/03/20 06:14:19;;;;;;;8.07;4.47;;;9.40;75.90;;;;;;9174910;19;20007;-62
2023/03/20 06:17:31;;;;;;;12.75;4.68;;;9.40;75.90;;;;;;9174889;19;20024;-62
2023/03/20 06:20:44;;;;;;;10.80;4.95;;;9.40;76.00;;;;;;9176899;19;20349;-62
2023/03/20 06:23:50;;;;;;;14.63;4.53;;;9.30;75.90;;;;;;9174639;19;20479;-62
2023/03/20 06:26:56;;;;;;;12.15;5.38;;;9.30;75.90;;;;;;9175006;19;20029;-62
2023/03/20 06:30:01;;;;;;;12.70;4.70;;;9.30;75.90;;;;;;9171920;19;21233;-62
2023/03/20 06:33:11;;;;;;;9.57;4.28;;;9.30;76.00;;;;;;9173833;19;20017;-63
2023/03/20 06:36:29;;;;;;;15.68;5.65;;;9.30;75.90;;;;;;9174220;19;20014;-62
2023/03/20 06:39:43;;;;;;;11.60;5.53;;;9.30;76.00;;;;;;9174353;19;20374;-62
2023/03/20 06:42:50;;;;;;;14.68;5.80;;;9.30;76.00;;;;;;9173443;19;20478;-62
2023/03/20 06:45:56;;;;;;;14.43;5.57;;;9.30;76.00;;;;;;9173756;19;20010;-62
2023/03/20 06:49:06;;;;;;;20.70;6.40;;;9.30;76.00;;;;;;9174421;19;20011;-65
2023/03/20 06:52:17;;;;;;;15.43;7.15;;;9.30;76.10;;;;;;9173410;19;20014;-63
2023/03/20 06:55:28;;;;;;;14.20;6.55;;;9.30;76.10;;;;;;9172972;19;20043;-63
2023/03/20 06:58:34;;;;;;;21.35;6.47;;;9.30;76.10;;;;;;9169160;19;20022;-63
2023/03/20 07:01:39;;;;;;;20.50;7.10;;;9.30;76.10;;;;;;9174214;19;20147;-63
2023/03/20 07:04:46;;;;;;;15.82;7.72;;;9.30;76.20;;;;;;9170587;19;20010;-63
2023/03/20 07:07:50;;;;;;;14.57;6.82;;;9.30;76.10;;;;;;9172358;19;20087;-62
2023/03/20 07:10:58;;;;;;;20.63;8.70;;;9.40;76.20;;;;;;9183158;19;20468;-63
2023/03/20 07:14:03;;;;;;;19.42;8.02;;;9.40;76.20;;;;;;9181905;19;20029;-63
2023/03/20 07:17:24;;;;;;;23.02;8.70;;;9.40;76.20;;;;;;9178657;19;20021;-63
2023/03/20 07:20:28;;;;;;;18.33;8.20;;;9.40;76.20;;;;;;9180973;19;20014;-63
2023/03/20 07:23:35;;;;;;;25.63;8.95;;;9.40;76.10;;;;;;9179904;19;20026;-63
2023/03/20 07:26:41;;;;;;;19.52;8.07;;;9.40;76.10;;;;;;9173948;19;20018;-63
2023/03/20 07:29:48;;;;;;;21.75;8.35;;;9.40;76.10;;;;;;9177852;19;20494;-63
2023/03/20 07:32:54;;;;;;;21.92;8.60;;;9.40;76.10;;;;;;9180537;19;20014;-63
2023/03/20 07:36:02;;;;;;;18.10;8.05;;;9.40;76.10;;;;;;9181498;19;20368;-63
2023/03/20 07:39:07;;;;;;;22.00;8.57;;;9.50;76.20;;;;;;9180170;19;20039;-63
2023/03/20 07:42:17;;;;;;;30.10;8.63;;;9.50;76.10;;;;;;9179433;19;20023;-64
2023/03/20 07:45:28;;;;;;;18.97;8.73;;;9.50;76.20;;;;;;9177617;19;20019;-63
2023/03/20 07:48:35;;;;;;;18.88;8.35;;;9.50;76.10;;;;;;9179879;19;21091;-64
2023/03/20 07:51:39;;;;;;;18.58;7.97;;;9.50;76.10;;;;;;9180132;19;20375;-63
2023/03/20 07:54:45;;;;;;;20.25;8.00;;;9.60;76.10;;;;;;9180163;19;20023;-64
2023/03/20 07:57:52;;;;;;;23.00;8.95;;;9.60;76.10;;;;;;9173385;19;20022;-63
2023/03/20 08:00:59;;;;;;;16.90;7.63;;;9.60;76.10;;;;;;9180053;19;20025;-63
2023/03/20 08:04:03;;;;;;;18.35;7.38;;;9.60;76.10;;;;;;9178997;19;20031;-62
2023/03/20 08:07:09;;;;;;;20.50;7.65;;;9.70;76.10;;;;;;9179469;19;20025;-63
2023/03/20 08:10:14;;;;;;;21.08;7.47;;;9.70;76.00;;;;;;9181000;19;20019;-63
2023/03/20 08:13:22;;;;;;;18.40;7.40;;;9.70;76.00;;;;;;9178947;19;20372;-63
2023/03/20 08:16:26;;;;;;;21.00;6.97;;;9.70;76.00;;;;;;9179486;19;20019;-63
2023/03/20 08:19:33;;;;;;;17.23;6.63;;;9.80;76.00;;;;;;9174889;19;20011;-63
2023/03/20 08:22:36;;;;;;;;;;;9.80;75.90;;;;;;9174818;19;20494;-63
2023/03/20 08:25:43;;;;;;;21.25;7.22;;;9.80;75.90;;;;;;9172504;19;19915;-63
2023/03/20 08:28:49;;;;;;;15.95;7.35;;;9.90;75.90;;;;;;9180337;19;20015;-63
2023/03/20 08:31:57;;;;;;;14.45;6.78;;;9.90;75.90;;;;;;9180587;19;20014;-63
2023/03/20 08:35:11;;;;;;;;;;;10.00;75.90;;;;;;9181311;19;20372;-62
2023/03/20 08:38:37;;;;;;;21.05;7.03;;;10.10;75.90;;;;;;9176110;19;20340;-63
2023/03/20 08:41:44;;;;;;;15.63;6.68;;;10.10;75.70;;;;;;9179811;19;20096;-63
2023/03/20 08:44:52;;;;;;;18.25;6.53;;;10.10;75.70;;;;;;9177574;19;20015;-63
2023/03/20 08:47:56;;;;;;;17.27;7.05;;;10.20;75.70;;;;;;9179503;19;20010;-63
2023/03/20 08:51:02;;;;;;;15.73;6.95;;;10.20;75.70;;;;;;9179908;19;20007;-64
2023/03/20 08:54:07;;;;;;;16.45;6.95;;;10.30;75.70;;;;;;9171812;19;20082;-63
2023/03/20 08:57:13;;;;;;;22.08;6.78;;;10.30;75.60;;;;;;9167839;19;20011;-68
2023/03/20 09:00:22;;;;;;;18.38;7.70;;;10.40;75.60;;;;;;9170385;19;20748;-68
2023/03/20 09:03:28;;;;;;;18.10;6.97;;;10.40;75.60;;;;;;9172625;19;20535;-68
2023/03/20 09:06:32;;;;;;;;;;;10.50;75.50;;;;;;9175447;19;20014;-68
2023/03/20 09:09:38;;;;;;;20.23;7.15;;;10.50;75.50;;;;;;9167962;19;19914;-68
2023/03/20 09:12:42;;;;;;;;;;;10.60;75.40;;;;;;9171070;19;20024;-70
2023/03/20 09:15:50;;;;;;;15.57;6.10;;;10.70;75.40;;;;;;9167987;19;20269;-68
2023/03/20 09:18:55;;;;;;;14.52;5.70;;;10.70;75.30;;;;;;9164155;19;20348;-68
2023/03/20 09:22:01;;;;;;;13.65;7.07;;;10.80;75.30;;;;;;9177619;19;20010;-68
2023/03/20 09:25:05;;;;;;;;;;;10.80;75.20;;;;;;9176776;19;20019;-69
2023/03/20 09:28:11;;;;;;;18.60;5.85;;;10.90;75.20;;;;;;9166759;19;20497;-69
2023/03/20 09:31:17;;;;;;;22.05;5.28;;;10.90;75.10;;;;;;9169486;19;20015;-68
2023/03/20 09:34:23;;;;;;;16.38;6.35;;;11.00;75.00;;;;;;9178234;19;20028;-69
2023/03/20 09:37:28;;;;;;;14.18;7.00;;;11.00;75.00;;;;;;9178569;19;20100;-69
2023/03/20 09:40:47;;;;;;;21.35;6.22;;;11.00;74.80;;;;;;9176212;19;20359;-69
2023/03/20 09:44:06;;;;;;;15.30;5.95;;;11.00;74.80;;;;;;9177839;19;20759;-69
2023/03/20 09:47:21;;;;;;;13.57;6.03;;;11.10;75.40;;;;;;9175993;19;20025;-69
2023/03/20 09:50:33;;;;;;;18.50;6.37;;;11.10;74.70;;;;;;9177332;19;20028;-69
2023/03/20 09:53:45;;;;;;;13.15;6.25;;;11.10;74.70;;;;;;9177687;19;20517;-69
2023/03/20 09:56:50;;;;;;;15.32;5.82;;;11.20;74.70;;;;;;9177061;19;20059;-69
2023/03/20 10:00:00;;;;;;;19.05;5.68;;;11.20;74.70;;;;;;9172649;19;20018;-69
2023/03/20 10:03:11;;;;;;;13.55;5.15;;;11.30;74.70;;;;;;9169527;19;20111;-69
2023/03/20 10:06:18;;;;;;;15.07;5.77;;;11.40;74.60;;;;;;9171438;19;20018;-64
2023/03/20 10:09:25;;;;;;;14.45;4.85;;;11.40;74.60;;;;;;9168877;19;20049;-65
2023/03/20 10:12:49;;;;;;;20.65;5.97;;;11.40;74.50;;;;;;9175392;19;20089;-65
2023/03/20 10:16:02;;;;;;;12.35;5.15;;;11.50;74.40;;;;;;9175751;19;20034;-65
2023/03/20 10:19:25;;;;;;;14.23;5.47;;;11.50;74.50;;;;;;9176532;19;20018;-65
2023/03/20 10:22:35;;;;;;;13.77;5.18;;;11.60;74.40;;;;;;9175015;19;20491;-65
2023/03/20 10:25:45;;;;;;;16.65;5.50;;;11.70;74.50;;;;;;9173378;19;20015;-65
2023/03/20 10:28:55;;;;;;;13.23;5.15;;;11.80;74.40;;;;;;9174584;19;20074;-65
2023/03/20 10:32:06;;;;;;;13.60;5.28;;;11.90;74.40;;;;;;9176609;19;20014;-65
2023/03/20 10:35:23;;;;;;;13.52;4.95;;;11.90;74.30;;;;;;9176682;19;20025;-65
2023/03/20 10:38:37;;;;;;;15.77;4.90;;;12.00;74.10;;;;;;9176440;19;20022;-65
2023/03/20 10:41:48;;;;;;;15.05;5.85;;;12.10;74.00;;;;;;9173447;19;20014;-65
2023/03/20 10:44:59;;;;;;;16.25;5.18;;;12.20;74.00;;;;;;9171560;19;20403;-64
2023/03/20 10:48:08;;;;;;;16.10;4.57;;;12.30;73.80;;;;;;9179933;19;20022;-64
2023/03/20 10:51:21;;;;;;;14.60;5.10;;;12.30;74.30;;;;;;9179130;19;20468;-65
2023/03/20 10:54:28;;;;;;;14.05;4.68;;;12.30;73.60;;;;;;9181767;19;20409;-64
2023/03/20 10:57:38;;;;;;;11.45;4.65;;;12.40;73.50;;;;;;9164924;19;20015;-65
2023/03/20 11:00:42;;;;;;;14.45;4.55;;;12.40;73.40;;;;;;9172641;19;20017;-65
2023/03/20 11:03:48;;;;;;;13.73;4.88;;;12.40;73.30;;;;;;9175707;19;20022;-65
2023/03/20 11:06:59;;;;;;;;;;;12.40;73.20;;;;;;9181871;19;20014;-65
2023/03/20 11:10:13;;;;;;;14.68;4.70;;;12.50;73.20;;;;;;9176366;19;19926;-65
2023/03/20 11:13:25;;;;;;;17.17;4.38;;;12.40;73.10;;;;;;9173148;19;20056;-65
2023/03/20 11:16:35;;;;;;;9.15;3.90;;;12.40;73.10;;;;;;9175941;19;20024;-65
2023/03/20 11:19:41;;;;;;;10.30;5.25;;;12.40;73.00;;;;;;9175687;19;20032;-65
2023/03/20 11:22:51;;;;;;;10.82;4.35;;;12.40;72.80;;;;;;9174855;19;20013;-65
2023/03/20 11:25:59;;;;;;;9.65;3.75;;;12.30;72.70;;;;;;9171664;19;20032;-65
2023/03/20 11:29:10;;;;;;;11.85;4.50;;;12.30;72.60;;;;;;9172067;19;20512;-64
2023/03/20 11:32:26;;;;;;;11.05;4.03;;;12.30;72.70;;;;;;9173987;19;20039;-65
2023/03/20 11:35:33;;;;;;;10.20;3.80;;;12.20;72.60;;;;;;9173062;19;20023;-65
2023/03/20 11:38:45;;;;;;;11.38;3.38;;;12.10;72.60;;;;;;9174190;19;20007;-65
2023/03/20 11:41:53;;;;;;;13.43;4.90;;;12.10;72.50;;;;;;9168730;19;20467;-64
2023/03/20 11:45:03;;;;;;;13.50;5.30;;;12.10;72.60;;;;;;9168101;19;20018;-64
2023/03/20 11:48:18;;;;;;;10.55;3.30;;;12.00;72.50;;;;;;9172518;19;20028;-65
2023/03/20 11:51:23;;;;;;;10.45;3.95;;;12.00;72.40;;;;;;9165480;19;20460;-64
2023/03/20 11:54:31;;;;;;;12.40;3.22;;;12.00;72.50;;;;;;9164335;19;20017;-65
2023/03/20 11:57:37;;;;;;;11.40;3.75;;;11.90;72.50;;;;;;9160103;19;20078;-65
2023/03/20 12:00:44;;;;;;;10.40;3.17;;;11.90;72.60;;;;;;9164686;19;20613;-64
2023/03/20 12:03:54;;;;;;;11.10;3.15;;;11.90;72.60;;;;;;9167928;19;20024;-65
2023/03/20 12:07:05;;;;;;;11.88;2.80;;;11.90;72.50;;;;;;9169530;19;20022;-64
2023/03/20 12:10:18;;;;;;;9.73;2.67;;;11.90;72.50;;;;;;9170789;19;20014;-65
2023/03/20 12:13:28;;;;;;;6.72;2.60;;;11.80;72.40;;;;;;9173725;19;20022;-65
2023/03/20 12:16:34;;;;;;;8.77;2.33;;;11.80;72.50;;;;;;9175236;19;20022;-64
2023/03/20 12:19:42;;;;;;;7.53;2.90;;;11.90;72.50;;;;;;9174847;19;20014;-65
2023/03/20 12:22:54;;;;;;;9.15;2.80;;;11.90;72.60;;;;;;9174590;19;20014;-64
2023/03/20 12:26:06;;;;;;;14.80;3.00;;;11.90;72.50;;;;;;9178009;19;20007;-65
2023/03/20 12:29:15;;;;;;;12.93;3.67;;;11.90;72.50;;;;;;9178960;19;20360;-65
2023/03/20 12:32:27;;;;;;;14.13;3.40;;;11.90;72.60;;;;;;9177400;19;20017;-65
2023/03/20 12:35:32;;;;;;;12.15;3.42;;;11.90;72.50;;;;;;9180793;19;20014;-65
2023/03/20 12:38:39;;;;;;;10.45;2.83;;;11.90;72.60;;;;;;9178856;19;20019;-64
2023/03/20 12:41:59;;;;;;;7.45;2.92;;;12.00;72.60;;;;;;9179789;19;20085;-64
2023/03/20 12:45:12;;;;;;;12.38;3.20;;;12.00;72.50;;;;;;9169473;19;20019;-64
2023/03/20 12:48:37;;;;;;;6.20;2.63;;;12.00;72.60;;;;;;9179874;19;20003;-65
2023/03/20 12:51:55;;;;;;;16.48;3.72;;;12.00;72.50;;;;;;9179755;19;20018;-65
2023/03/20 12:55:25;;;;;;;7.38;2.78;;;11.90;72.50;;;;;;9179070;19;20018;-64
2023/03/20 12:58:41;;;;;;;9.90;3.10;;;11.90;72.50;;;;;;9174620;19;20360;-65
2023/03/20 13:01:51;;;;;;;7.68;2.80;;;11.90;72.50;;;;;;9176284;19;20022;-65
2023/03/20 13:05:09;;;;;;;12.77;3.42;;;11.90;72.50;;;;;;9174980;19;20010;-65
2023/03/20 13:08:35;;;;;;;8.13;3.05;;;11.90;72.60;;;;;;9178804;19;20011;-65
2023/03/20 13:11:47;;;;;;;10.82;3.45;;;11.90;72.60;;;;;;9177795;19;20011;-63
2023/03/20 13:15:03;;;;;;;11.85;3.25;;;11.90;72.60;;;;;;9178747;19;20391;-64
2023/03/20 13:18:16;;;;;;;10.60;3.30;;;11.80;72.60;;;;;;9176165;19;20451;-64
2023/03/20 13:21:28;;;;;;;10.98;2.88;;;11.80;72.70;;;;;;9175746;19;20018;-64
2023/03/20 13:24:40;;;;;;;10.52;2.28;;;11.80;72.70;;;;;;9168328;19;21666;-64
2023/03/20 13:27:51;;;;;;;8.90;2.38;;;11.80;72.70;;;;;;9170014;19;20026;-64
2023/03/20 13:31:06;;;;;;;10.65;2.92;;;11.70;73.40;;;;;;9170215;19;20018;-64
2023/03/20 13:34:24;;;;;;;11.55;2.63;;;11.70;72.70;;;;;;9171809;19;20018;-64
2023/03/20 13:37:35;;;;;;;8.43;3.00;;;11.70;72.70;;;;;;9168353;19;20018;-64
2023/03/20 13:40:42;;;;;;;6.65;2.58;;;11.70;72.80;;;;;;9170959;19;20047;-65
2023/03/20 13:43:53;;;;;;;9.60;2.70;;;11.70;72.80;;;;;;9169011;19;20018;-64
2023/03/20 13:47:03;;;;;;;5.63;2.40;;;11.70;72.80;;;;;;9166957;19;20039;-64
2023/03/20 13:50:33;;;;;;;8.82;2.65;;;11.70;72.80;;;;;;9171351;19;20014;-64
2023/03/20 13:53:48;;;;;;;8.63;2.50;;;11.70;72.80;;;;;;9175888;19;20022;-64
2023/03/20 13:57:00;;;;;;;6.55;2.38;;;11.60;72.70;;;;;;9173058;19;20040;-65
2023/03/20 14:00:16;;;;;;;4.78;2.45;;;11.60;72.70;;;;;;9168216;19;20019;-64
2023/03/20 14:03:28;;;;;;;10.35;2.15;;;11.60;72.80;;;;;;9174658;19;20022;-64
2023/03/20 14:06:59;;;;;;;10.23;3.00;;;11.50;72.70;;;;;;9159838;19;20018;-64
2023/03/20 14:10:35;;;;;;;6.28;2.08;;;11.50;72.80;;;;;;9168887;19;20030;-64
2023/03/20 14:13:40;;;;;;;;;;;11.50;72.80;;;;;;9167115;19;20360;-64
2023/03/20 14:16:46;;;;;;;9.35;2.55;;;11.40;72.80;;;;;;9176164;19;19920;-63
2023/03/20 14:19:53;;;;;;;;;;;11.40;72.90;;;;;;9181777;19;20014;-63
2023/03/20 14:22:59;;;;;;;7.75;2.75;;;11.40;72.90;;;;;;9181275;19;19926;-63
2023/03/20 14:26:09;;;;;;;10.00;2.85;;;11.30;72.90;;;;;;9179103;19;20049;-63
2023/03/20 14:29:33;;;;;;;6.32;2.53;;;11.30;73.00;;;;;;9179587;19;20015;-64
2023/03/20 14:32:51;;;;;;;12.70;3.00;;;11.30;73.10;;;;;;9182717;19;20019;-64
2023/03/20 14:36:20;;;;;;;11.00;3.03;;;11.30;73.10;;;;;;9182022;19;20019;-64
2023/03/20 14:39:35;;;;;;;10.38;3.78;;;11.20;73.10;;;;;;9180779;19;20388;-63
2023/03/20 14:42:52;;;;;;;8.50;2.95;;;11.20;73.20;;;;;;9182306;19;20021;-63
2023/03/20 14:46:02;;;;;;;9.70;3.28;;;11.20;73.20;;;;;;9177499;19;20019;-64
2023/03/20 14:49:26;;;;;;;12.07;3.67;;;11.20;73.30;;;;;;9178874;19;20019;-63
2023/03/20 14:52:55;;;;;;;8.48;3.40;;;11.10;73.50;;;;;;9181768;19;20637;-63
2023/03/20 14:56:12;;;;;;;8.85;3.53;;;11.10;73.50;;;;;;9178784;19;20021;-63
2023/03/20 14:59:17;;;;;;;8.43;3.30;;;11.10;73.50;;;;;;9175752;19;20010;-64
2023/03/20 15:02:27;;;;;;;12.55;4.03;;;11.10;73.50;;;;;;9181202;19;20022;-64
2023/03/20 15:05:34;;;;;;;10.68;3.65;;;11.00;73.60;;;;;;9179856;19;20011;-64
2023/03/20 15:08:49;;;;;;;18.20;4.38;;;11.00;73.60;;;;;;9177888;19;20506;-63
2023/03/20 15:11:58;;;;;;;10.00;3.30;;;11.00;73.80;;;;;;9179067;19;20010;-63
2023/03/20 15:15:06;;;;;;;8.30;2.95;;;10.90;73.70;;;;;;9179812;19;20033;-63
2023/03/20 15:18:14;;;;;;;10.07;4.38;;;10.90;73.80;;;;;;9165742;19;20480;-64
2023/03/20 15:21:24;;;;;;;9.05;4.93;;;10.90;73.90;;;;;;9174834;19;20026;-64
2023/03/20 15:24:31;;;;;;;11.63;4.28;;;10.90;74.00;;;;;;9173578;19;20794;-64
2023/03/20 15:27:37;;;;;;;11.30;4.63;;;10.90;74.10;;;;;;9171005;19;20010;-64
2023/03/20 15:30:41;;;;;;;14.05;4.60;;;10.80;74.10;;;;;;9170591;19;20018;-64
2023/03/20 15:33:47;;;;;;;15.23;4.40;;;10.80;74.20;;;;;;9172918;19;20019;-64
2023/03/20 15:36:51;;;;;;;;;;;10.80;74.90;;;;;;9173873;19;20057;-64
2023/03/20 15:39:59;;;;;;;15.30;3.83;;;10.80;74.30;;;;;;9173381;19;19926;-64
2023/03/20 15:43:12;;;;;;;10.20;3.90;;;10.70;74.10;;;;;;9170973;19;20484;-64
2023/03/20 15:46:18;;;;;;;11.40;4.35;;;10.80;74.30;;;;;;9163114;19;20472;-64
2023/03/20 15:49:23;;;;;;;12.10;4.65;;;10.70;74.40;;;;;;9169776;19;20019;-64
2023/03/20 15:52:33;;;;;;;19.75;5.47;;;10.70;74.40;;;;;;9171038;19;20014;-64
2023/03/20 15:55:40;;;;;;;12.23;5.20;;;10.70;74.60;;;;;;9173427;19;20337;-64
2023/03/20 15:58:48;;;;;;;16.52;5.10;;;10.70;74.90;;;;;;9169783;19;20019;-64
2023/03/20 16:01:54;;;;;;;11.15;4.68;;;10.60;74.70;;;;;;9174785;19;20014;-64
2023/03/20 16:05:01;;;;;;;12.95;5.13;;;10.60;74.80;;;;;;9174971;19;20022;-64
2023/03/20 16:08:13;;;;;;;18.23;5.88;;;10.60;74.80;;;;;;9163559;19;20018;-63
2023/03/20 16:11:21;;;;;;;12.68;5.15;;;10.50;74.90;;;;;;9164663;19;20491;-63
2023/03/20 16:14:29;;;;;;;21.10;5.38;;;10.60;75.00;;;;;;9174546;19;20011;-63
2023/03/20 16:17:35;;;;;;;16.95;5.53;;;10.50;75.10;;;;;;9171312;19;20010;-63
2023/03/20 16:20:47;;;;;;;18.60;5.45;;;10.50;75.10;;;;;;9174571;19;20022;-63
2023/03/20 16:23:56;;;;;;;20.55;5.63;;;10.50;75.30;;;;;;9165265;19;20011;-64
2023/03/20 16:27:07;;;;;;;11.50;5.88;;;10.50;75.30;;;;;;9162328;19;20047;-64